Time;durP1;ratioP1;P1;durP2;ratioP2;P2;SDS_P1;SDS_P2;PMS_P1;PMS_P2;Temp;Humidity;BMP_temperature;BMP_pressure;BME280_temperature;BME280_humidity;BME280_pressure;Samples;Min_cycle;Max_cycle;Signal;HPM_P1;HPM_P2
2022/06/13 00:01:23;;;;;;;5.35;5.15;;;;;;;-143.83;100.00;62900.06;5051592;28;20056;-59
2022/06/13 00:03:50;;;;;;;5.28;5.07;;;;;;;-143.83;100.00;62900.06;5048742;28;20079;-59
2022/06/13 00:06:15;;;;;;;5.15;4.95;;;;;;;-143.83;100.00;62900.06;5062871;28;20380;-59
2022/06/13 00:08:41;;;;;;;5.18;4.97;;;;;;;-143.83;100.00;62900.06;5051534;28;20025;-60
2022/06/13 00:11:10;;;;;;;5.10;4.90;;;;;;;-143.83;100.00;62900.06;5037645;28;20025;-59
2022/06/13 00:13:38;;;;;;;5.22;5.03;;;;;;;-143.83;100.00;62900.06;5049429;28;20040;-59
2022/06/13 00:16:04;;;;;;;5.40;5.20;;;;;;;-143.83;100.00;62900.06;5051483;28;20052;-59
2022/06/13 00:18:29;;;;;;;5.15;4.95;;;;;;;-143.83;100.00;62900.06;5051206;28;20079;-60
2022/06/13 00:20:55;;;;;;;5.20;5.00;;;;;;;-143.83;100.00;62900.06;5051366;28;20024;-60
2022/06/13 00:23:21;;;;;;;5.20;5.00;;;;;;;-143.83;100.00;62900.06;5066349;28;20025;-60
2022/06/13 00:25:46;;;;;;;5.15;4.95;;;;;;;-143.83;100.00;62900.06;5050125;28;20500;-60
2022/06/13 00:28:12;;;;;;;5.10;4.90;;;;;;;-143.83;100.00;62900.06;5054105;28;20025;-59
2022/06/13 00:30:38;;;;;;;5.25;5.05;;;;;;;-143.83;100.00;62900.06;5054424;28;20031;-60
2022/06/13 00:33:03;;;;;;;5.30;5.10;;;;;;;-143.83;100.00;62900.06;5055651;28;20040;-60
2022/06/13 00:35:29;;;;;;;5.10;4.90;;;;;;;-143.83;100.00;62900.06;5055548;28;20047;-60
2022/06/13 00:37:54;;;;;;;5.22;5.03;;;;;;;-143.83;100.00;62900.06;5053993;28;20503;-59
2022/06/13 00:40:20;;;;;;;5.30;5.10;;;;;;;-143.83;100.00;62900.06;5055861;28;20563;-58
2022/06/13 00:42:46;;;;;;;5.30;5.10;;;;;;;-143.83;100.00;62900.06;5053555;28;20063;-60
2022/06/13 00:45:19;;;;;;;5.30;5.10;;;;;;;-143.83;100.00;62900.06;5055421;28;20028;-60
2022/06/13 00:47:48;;;;;;;5.38;5.18;;;;;;;-143.83;100.00;62900.06;5054085;28;20045;-60
2022/06/13 00:50:25;;;;;;;5.30;5.10;;;;;;;-143.83;100.00;62900.06;5055303;28;20029;-58
2022/06/13 00:53:01;;;;;;;5.30;5.10;;;;;;;-143.83;100.00;62900.06;5054850;28;20392;-60
2022/06/13 00:55:33;;;;;;;5.20;5.00;;;;;;;-143.83;100.00;62900.06;5057059;28;20477;-59
2022/06/13 00:58:00;;;;;;;5.35;5.15;;;;;;;-143.83;100.00;62900.06;5061467;28;20032;-58
2022/06/13 01:00:28;;;;;;;5.32;5.13;;;;;;;-143.83;100.00;62900.06;5049887;28;20037;-60
2022/06/13 01:02:53;;;;;;;5.20;5.00;;;;;;;-143.83;100.00;62900.06;5056575;28;20419;-59
2022/06/13 01:05:25;;;;;;;5.28;5.07;;;;;;;-143.83;100.00;62900.06;5054870;28;20100;-59
2022/06/13 01:07:53;;;;;;;5.28;5.07;;;;;;;-143.83;100.00;62900.06;5048423;28;20047;-59
2022/06/13 01:13:07;;;;;;;5.30;5.10;;;;;;;-143.83;100.00;62900.06;5055065;28;20040;-59
2022/06/13 01:15:50;;;;;;;5.10;4.90;;;;;;;-143.83;100.00;62900.06;5044363;28;20036;-59
2022/06/13 01:18:42;;;;;;;5.20;5.00;;;;;;;-143.83;100.00;62900.06;5054336;28;20033;-59
2022/06/13 01:21:16;;;;;;;5.30;5.10;;;;;;;-143.83;100.00;62900.06;5048453;28;20033;-60
2022/06/13 01:24:00;;;;;;;5.28;5.07;;;;;;;-143.83;100.00;62900.06;5054562;28;20104;-60
2022/06/13 01:26:44;;;;;;;5.10;4.90;;;;;;;-143.83;100.00;62900.06;5054342;28;20024;-58
2022/06/13 01:29:41;;;;;;;5.18;4.97;;;;;;;-143.83;100.00;62900.06;5054475;28;20037;-59
2022/06/13 01:32:25;;;;;;;4.97;4.78;;;;;;;-143.83;100.00;62900.06;5042033;28;20032;-61
2022/06/13 01:35:28;;;;;;;5.20;5.00;;;;;;;-143.83;100.00;62900.06;5052800;28;20033;-59
2022/06/13 01:38:35;;;;;;;5.25;5.05;;;;;;;-143.83;100.00;62900.06;5053206;28;20441;-61
2022/06/13 01:41:00;;;;;;;5.30;5.10;;;;;;;-143.83;100.00;62900.06;5054212;28;20055;-58
2022/06/13 01:43:45;;;;;;;5.38;5.18;;;;;;;-143.83;100.00;62900.06;5053084;28;20465;-60
2022/06/13 01:46:20;;;;;;;5.10;4.90;;;;;;;-143.83;100.00;62900.06;5054541;28;20079;-59
2022/06/13 01:49:06;;;;;;;5.05;4.85;;;;;;;-143.83;100.00;62900.06;5044568;28;20505;-58
2022/06/13 01:51:35;;;;;;;5.05;4.85;;;;;;;-143.83;100.00;62900.06;5054264;28;20033;-59
2022/06/13 01:54:22;;;;;;;5.15;4.95;;;;;;;-143.83;100.00;62900.06;5052699;28;20126;-59
2022/06/13 01:56:54;;;;;;;5.22;5.03;;;;;;;-143.83;100.00;62900.06;5049396;28;20025;-59
2022/06/13 01:59:42;;;;;;;5.32;5.13;;;;;;;-143.83;100.00;62900.06;5053811;28;20048;-60
2022/06/13 02:02:40;;;;;;;5.22;5.03;;;;;;;-143.83;100.00;62900.06;5053569;28;20029;-58
2022/06/13 02:05:11;;;;;;;5.20;5.00;;;;;;;-143.83;100.00;62900.06;5008886;28;20127;-59
2022/06/13 02:07:43;;;;;;;5.15;4.95;;;;;;;-143.83;100.00;62900.06;5045462;28;20037;-59
2022/06/13 02:10:34;;;;;;;5.25;5.05;;;;;;;-143.83;100.00;62900.06;5053447;28;20577;-59
2022/06/13 02:13:07;;;;;;;5.20;5.00;;;;;;;-143.83;100.00;62900.06;5042490;28;20163;-59
2022/06/13 02:15:55;;;;;;;5.10;4.90;;;;;;;-143.83;100.00;62900.06;5053300;28;20036;-59
2022/06/13 02:18:28;;;;;;;5.25;5.05;;;;;;;-143.83;100.00;62900.06;5053474;28;20051;-60
2022/06/13 02:20:59;;;;;;;5.20;5.00;;;;;;;-143.83;100.00;62900.06;5053831;28;20028;-59
2022/06/13 02:23:29;;;;;;;5.05;4.85;;;;;;;-143.83;100.00;62900.06;5039258;28;20033;-58
2022/06/13 02:26:05;;;;;;;5.30;5.10;;;;;;;-143.83;100.00;62900.06;5053314;28;20514;-59
2022/06/13 02:28:44;;;;;;;5.25;5.05;;;;;;;-143.83;100.00;62900.06;5052589;28;20033;-59
2022/06/13 02:31:15;;;;;;;5.28;5.07;;;;;;;-143.83;100.00;62900.06;5053163;28;20063;-60
2022/06/13 02:33:50;;;;;;;5.25;5.05;;;;;;;-143.83;100.00;62900.06;5052875;28;20044;-60
2022/06/13 02:36:24;;;;;;;5.20;5.00;;;;;;;-143.83;100.00;62900.06;5046690;28;20025;-59
2022/06/13 02:39:13;;;;;;;5.28;5.07;;;;;;;-143.83;100.00;62900.06;5053608;28;20077;-59
2022/06/13 02:41:46;;;;;;;5.05;4.85;;;;;;;-143.83;100.00;62900.06;5053105;28;20107;-59
2022/06/13 02:44:32;;;;;;;5.20;5.00;;;;;;;-143.83;100.00;62900.06;5053218;28;20430;-59
2022/06/13 02:47:04;;;;;;;5.28;5.07;;;;;;;-143.83;100.00;62900.06;5040740;28;20025;-60
2022/06/13 02:50:01;;;;;;;5.20;5.00;;;;;;;-143.83;100.00;62900.06;5052458;28;20061;-60
2022/06/13 02:52:56;;;;;;;5.22;5.03;;;;;;;-143.83;100.00;62900.06;5052800;28;20089;-59
2022/06/13 02:55:23;;;;;;;5.28;5.07;;;;;;;-143.83;100.00;62900.06;5053086;28;20048;-60
2022/06/13 02:58:12;;;;;;;5.10;4.90;;;;;;;-143.83;100.00;62900.06;5052866;28;20037;-60
2022/06/13 03:00:40;;;;;;;5.40;5.20;;;;;;;-143.83;100.00;62900.06;5039140;28;20029;-59
2022/06/13 03:03:13;;;;;;;5.38;5.18;;;;;;;-143.83;100.00;62900.06;5046236;28;20025;-60
2022/06/13 03:05:46;;;;;;;5.30;5.10;;;;;;;-143.83;100.00;62900.06;5052642;28;20032;-60
2022/06/13 03:08:36;;;;;;;5.38;5.18;;;;;;;-143.83;100.00;62900.06;5052381;28;20510;-59
2022/06/13 03:11:27;;;;;;;5.40;5.20;;;;;;;-143.83;100.00;62900.06;5041487;28;20083;-60
2022/06/13 03:13:59;;;;;;;5.45;5.25;;;;;;;-143.83;100.00;62900.06;5052066;28;20122;-59
2022/06/13 03:16:32;;;;;;;5.30;5.10;;;;;;;-143.83;100.00;62900.06;5052464;28;20029;-59
2022/06/13 03:19:06;;;;;;;5.68;5.47;;;;;;;-143.83;100.00;62900.06;5051177;28;20029;-58
2022/06/13 03:21:40;;;;;;;;;;;;;;;-143.83;100.00;62900.06;5052799;28;20021;-58
2022/06/13 03:24:15;;;;;;;5.63;5.43;;;;;;;-143.83;100.00;62900.06;5052026;28;19909;-59
2022/06/13 03:26:49;;;;;;;5.82;5.63;;;;;;;-143.83;100.00;62900.06;5049758;28;20033;-60
2022/06/13 03:29:22;;;;;;;;;;;;;;;-143.83;100.00;62900.06;5050616;28;20039;-60
2022/06/13 03:31:56;;;;;;;5.57;5.38;;;;;;;-143.83;100.00;62900.06;5055257;28;19955;-60
2022/06/13 03:34:28;;;;;;;5.82;5.63;;;;;;;-143.83;100.00;62900.06;5051805;28;20120;-60
2022/06/13 03:37:00;;;;;;;5.80;5.60;;;;;;;-143.83;100.00;62900.06;5051199;28;20040;-59
2022/06/13 03:39:32;;;;;;;5.72;5.53;;;;;;;-143.83;100.00;62900.06;5051663;28;20036;-59
2022/06/13 03:42:34;;;;;;;5.80;5.60;;;;;;;-143.83;100.00;62900.06;5052227;28;20409;-60
2022/06/13 03:45:08;;;;;;;5.88;5.68;;;;;;;-143.83;100.00;62900.06;5050026;28;20060;-60
2022/06/13 03:47:42;;;;;;;6.15;5.95;;;;;;;-143.83;100.00;62900.06;5059201;28;20121;-60
2022/06/13 03:50:23;;;;;;;6.15;5.95;;;;;;;-143.83;100.00;62900.06;5048964;28;20504;-58
2022/06/13 03:52:56;;;;;;;5.97;5.78;;;;;;;-143.83;100.00;62900.06;5050547;28;20079;-59
2022/06/13 03:55:39;;;;;;;6.15;5.95;;;;;;;-143.83;100.00;62900.06;5051701;28;20025;-59
2022/06/13 03:58:13;;;;;;;6.23;6.03;;;;;;;-143.83;100.00;62900.06;5050798;28;20032;-59
2022/06/13 04:00:46;;;;;;;;;;;;;;;-143.83;100.00;62900.06;5046811;28;20267;-59
2022/06/13 04:03:12;;;;;;;6.18;5.97;;;;;;;-143.83;100.00;62900.06;5047270;28;19916;-59
2022/06/13 04:05:42;;;;;;;6.10;5.90;;;;;;;-143.83;100.00;62900.06;5040209;28;20025;-59
2022/06/13 04:08:10;;;;;;;6.35;6.07;;;;;;;-143.83;100.00;62900.06;5051836;28;20025;-59
2022/06/13 04:11:14;;;;;;;6.40;6.10;;;;;;;-143.83;100.00;62900.06;5050441;28;20033;-59
2022/06/13 04:14:09;;;;;;;6.20;6.00;;;;;;;-143.83;100.00;62900.06;5039529;28;20052;-60
2022/06/13 04:17:13;;;;;;;6.10;5.90;;;;;;;-143.83;100.00;62900.06;5050499;28;20074;-59
2022/06/13 04:19:47;;;;;;;6.40;6.10;;;;;;;-143.83;100.00;62900.06;5045023;28;20274;-58
2022/06/13 04:22:31;;;;;;;6.43;6.13;;;;;;;-143.83;100.00;62900.06;5037202;28;20037;-59
2022/06/13 04:25:15;;;;;;;6.32;6.05;;;;;;;-143.83;100.00;62900.06;5051148;28;20029;-59
2022/06/13 04:27:52;;;;;;;6.60;6.30;;;;;;;-143.83;100.00;62900.06;5050409;28;20033;-59
2022/06/13 04:30:21;;;;;;;6.43;6.13;;;;;;;-143.83;100.00;62900.06;5049144;28;20033;-59
2022/06/13 04:32:54;;;;;;;6.05;5.85;;;;;;;-143.83;100.00;62900.06;5051136;28;20029;-59
2022/06/13 04:35:20;;;;;;;6.55;6.25;;;;;;;-143.83;100.00;62900.06;5037683;28;20037;-59
2022/06/13 04:37:47;;;;;;;6.50;6.20;;;;;;;-143.83;100.00;62900.06;5050979;28;20029;-59
2022/06/13 04:40:19;;;;;;;6.20;6.00;;;;;;;-143.83;100.00;62900.06;5050738;28;20021;-59
2022/06/13 04:42:48;;;;;;;6.47;6.18;;;;;;;-143.83;100.00;62900.06;5046921;28;20100;-59
2022/06/13 04:45:31;;;;;;;6.50;6.20;;;;;;;-143.83;100.00;62900.06;5048090;28;20507;-60
2022/06/13 04:47:57;;;;;;;6.50;6.20;;;;;;;-143.83;100.00;62900.06;5053455;28;20227;-59
2022/06/13 04:50:45;;;;;;;6.53;6.22;;;;;;;-143.83;100.00;62900.06;5050780;28;20033;-59
2022/06/13 04:53:52;;;;;;;6.25;6.03;;;;;;;-143.83;100.00;62900.06;5043334;28;20025;-60
2022/06/13 04:56:20;;;;;;;6.20;6.00;;;;;;;-143.83;100.00;62900.06;5048164;28;20029;-59
2022/06/13 04:58:47;;;;;;;6.18;5.97;;;;;;;-143.83;100.00;62900.06;5051057;28;20020;-59
2022/06/13 05:01:22;;;;;;;6.43;6.13;;;;;;;-143.83;100.00;62900.06;5046070;28;20047;-59
2022/06/13 05:03:48;;;;;;;6.20;6.00;;;;;;;-143.83;100.00;62900.06;5047010;28;20061;-60
2022/06/13 05:06:37;;;;;;;6.55;6.25;;;;;;;-143.83;100.00;62900.06;5046102;28;20037;-60
2022/06/13 05:09:23;;;;;;;6.38;6.07;;;;;;;-143.83;100.00;62900.06;5045657;28;20047;-59
2022/06/13 05:11:52;;;;;;;6.35;6.07;;;;;;;-143.83;100.00;62900.06;5038629;28;20033;-60
2022/06/13 05:15:01;;;;;;;6.28;6.05;;;;;;;-143.83;100.00;62900.06;5054220;28;20086;-60
2022/06/13 05:17:56;;;;;;;6.63;6.32;;;;;;;-143.83;100.00;62900.06;5001435;28;20386;-59
2022/06/13 05:20:45;;;;;;;6.47;6.18;;;;;;;-143.83;100.00;62900.06;5046330;28;20029;-60
2022/06/13 05:23:29;;;;;;;6.35;6.07;;;;;;;-143.83;100.00;62900.06;5041589;28;20033;-61
2022/06/13 05:25:58;;;;;;;6.47;6.18;;;;;;;-143.83;100.00;62900.06;5053695;28;20071;-59
2022/06/13 05:28:29;;;;;;;6.38;6.10;;;;;;;-143.83;100.00;62900.06;5059794;28;20021;-61
2022/06/13 05:30:58;;;;;;;6.25;6.03;;;;;;;-143.83;100.00;62900.06;5051219;28;20029;-61
2022/06/13 05:33:30;;;;;;;6.57;6.28;;;;;;;-143.83;100.00;62900.06;5062238;28;20483;-61
2022/06/13 05:35:57;;;;;;;6.60;6.30;;;;;;;-143.83;100.00;62900.06;5050152;28;20037;-61
2022/06/13 05:38:31;;;;;;;6.68;6.38;;;;;;;-143.83;100.00;62900.06;5048561;28;20059;-61
2022/06/13 05:40:57;;;;;;;6.68;6.38;;;;;;;-143.83;100.00;62900.06;5063500;28;20427;-61
2022/06/13 05:43:22;;;;;;;7.10;6.80;;;;;;;-143.83;100.00;62900.06;5052986;28;20043;-60
2022/06/13 05:45:48;;;;;;;6.95;6.65;;;;;;;-143.83;100.00;62900.06;5051878;28;20391;-62
2022/06/13 05:48:16;;;;;;;6.50;6.20;;;;;;;-143.83;100.00;62900.06;5050923;28;20053;-60
2022/06/13 05:50:43;;;;;;;6.72;6.43;;;;;;;-143.83;100.00;62900.06;5044676;28;20021;-61
2022/06/13 05:53:12;;;;;;;6.45;6.15;;;;;;;-143.83;100.00;62900.06;5055189;28;20431;-60
2022/06/13 05:55:38;;;;;;;6.80;6.50;;;;;;;-143.83;100.00;62900.06;5051743;28;20373;-60
2022/06/13 05:58:04;;;;;;;6.60;6.30;;;;;;;-143.83;100.00;62900.06;5044583;28;20079;-60
2022/06/13 06:00:37;;;;;;;6.60;6.30;;;;;;;-143.83;100.00;62900.06;5045553;28;20426;-61
2022/06/13 06:03:03;;;;;;;6.60;6.30;;;;;;;-143.83;100.00;62900.06;5050766;28;20059;-60
2022/06/13 06:05:29;;;;;;;6.60;6.30;;;;;;;-143.83;100.00;62900.06;5047929;28;20805;-61
2022/06/13 06:07:56;;;;;;;6.57;6.28;;;;;;;-143.83;100.00;62900.06;5051815;28;20061;-61
2022/06/13 06:10:32;;;;;;;6.65;6.35;;;;;;;-143.83;100.00;62900.06;5041243;28;20029;-61
2022/06/13 06:12:57;;;;;;;6.47;6.18;;;;;;;-143.83;100.00;62900.06;5038666;28;20029;-61
2022/06/13 06:15:23;;;;;;;6.70;6.40;;;;;;;-143.83;100.00;62900.06;5053837;28;20110;-61
2022/06/13 06:17:48;;;;;;;6.63;6.32;;;;;;;-143.83;100.00;62900.06;5057048;28;20051;-62
2022/06/13 06:20:20;;;;;;;6.60;6.30;;;;;;;-143.83;100.00;62900.06;5058173;28;20028;-59
2022/06/13 06:22:45;;;;;;;6.80;6.50;;;;;;;-143.83;100.00;62900.06;5046261;28;20120;-61
2022/06/13 06:25:12;;;;;;;6.43;6.13;;;;;;;-143.83;100.00;62900.06;5056698;28;20115;-60
2022/06/13 06:27:38;;;;;;;6.60;6.30;;;;;;;-143.83;100.00;62900.06;5048780;28;20027;-60
2022/06/13 06:30:04;;;;;;;6.55;6.25;;;;;;;-143.83;100.00;62900.06;5060227;28;20112;-60
2022/06/13 06:32:29;;;;;;;6.57;6.28;;;;;;;-143.83;100.00;62900.06;5055745;28;20436;-61
2022/06/13 06:34:55;;;;;;;6.40;6.10;;;;;;;-143.83;100.00;62900.06;5055552;28;20128;-60
2022/06/13 06:37:20;;;;;;;6.60;6.30;;;;;;;-143.83;100.00;62900.06;5056445;28;20044;-61
2022/06/13 06:39:47;;;;;;;6.60;6.30;;;;;;;-143.83;100.00;62900.06;5053436;28;20075;-60
2022/06/13 06:42:12;;;;;;;6.40;6.10;;;;;;;-143.83;100.00;62900.06;5053070;28;20322;-61
2022/06/13 06:44:38;;;;;;;6.60;6.30;;;;;;;-143.83;100.00;62900.06;5057616;28;20039;-60
2022/06/13 06:47:06;;;;;;;6.55;6.25;;;;;;;-143.83;100.00;62900.06;5054544;28;20075;-61
2022/06/13 06:49:34;;;;;;;6.55;6.25;;;;;;;-143.83;100.00;62900.06;5043364;28;20071;-70
2022/06/13 06:52:01;;;;;;;6.63;6.32;;;;;;;-143.83;100.00;62900.06;5050979;28;20546;-60
2022/06/13 06:59:55;;;;;;;6.40;6.10;;;;;;;-143.83;100.00;62900.06;5052116;28;20064;-60
2022/06/13 07:02:23;;;;;;;6.40;6.10;;;;;;;-143.83;100.00;62900.06;5052883;28;20052;-60
2022/06/13 07:04:52;;;;;;;6.25;6.03;;;;;;;-143.83;100.00;62900.06;5050794;28;20056;-60
2022/06/13 07:07:17;;;;;;;6.70;6.40;;;;;;;-143.83;100.00;62900.06;5054009;28;20111;-60
2022/06/13 07:09:43;;;;;;;6.57;6.28;;;;;;;-143.83;100.00;62900.06;5049771;28;20104;-60
2022/06/13 07:12:09;;;;;;;6.50;6.20;;;;;;;-143.83;100.00;62900.06;5047358;28;20064;-60
2022/06/13 07:14:35;;;;;;;6.50;6.20;;;;;;;-143.83;100.00;62900.06;5052208;28;20029;-60
2022/06/13 07:17:03;;;;;;;6.50;6.20;;;;;;;-143.83;100.00;62900.06;5048819;28;20020;-60
2022/06/13 07:19:29;;;;;;;6.50;6.20;;;;;;;-143.83;100.00;62900.06;5052417;28;20049;-59
2022/06/13 07:21:55;;;;;;;6.60;6.30;;;;;;;-143.83;100.00;62900.06;5052270;28;20029;-60
2022/06/13 07:24:21;;;;;;;6.68;6.38;;;;;;;-143.83;100.00;62900.06;5052543;28;20385;-60
2022/06/13 07:26:48;;;;;;;6.40;6.10;;;;;;;-143.83;100.00;62900.06;5052338;28;20029;-60
2022/06/13 07:29:16;;;;;;;6.40;6.10;;;;;;;-143.83;100.00;62900.06;5038176;28;20029;-61
2022/06/13 07:32:07;;;;;;;6.40;6.10;;;;;;;-143.83;100.00;62900.06;5048940;28;20082;-59
2022/06/13 07:34:35;;;;;;;6.25;6.05;;;;;;;-143.83;100.00;62900.06;5046624;28;20024;-60
2022/06/13 07:37:03;;;;;;;6.50;6.20;;;;;;;-143.83;100.00;62900.06;5051848;28;20021;-60
2022/06/13 07:39:29;;;;;;;6.00;5.80;;;;;;;-143.83;100.00;62900.06;5051736;28;20041;-60
2022/06/13 07:41:55;;;;;;;6.20;5.97;;;;;;;-143.83;100.00;62900.06;5043538;28;20423;-60
2022/06/13 07:44:24;;;;;;;6.10;5.90;;;;;;;-143.83;100.00;62900.06;5045527;28;20025;-60
2022/06/13 07:46:51;;;;;;;6.40;6.10;;;;;;;-143.83;100.00;62900.06;5045920;28;20040;-60
2022/06/13 07:49:17;;;;;;;6.13;5.93;;;;;;;-143.83;100.00;62900.06;5043465;28;20045;-59
2022/06/13 07:51:43;;;;;;;6.07;5.88;;;;;;;-143.83;100.00;62900.06;5050849;28;20500;-59
2022/06/13 07:54:09;;;;;;;6.00;5.80;;;;;;;-143.83;100.00;62900.06;5050586;28;20104;-59
2022/06/13 07:56:35;;;;;;;6.00;5.80;;;;;;;-143.83;100.00;62900.06;5051652;28;20122;-60
2022/06/13 07:59:01;;;;;;;6.10;5.90;;;;;;;-143.83;100.00;62900.06;5051203;28;20017;-60
2022/06/13 08:01:28;;;;;;;5.90;5.70;;;;;;;-143.83;100.00;62900.06;5069145;28;20059;-60
2022/06/13 08:03:54;;;;;;;5.90;5.70;;;;;;;-143.83;100.00;62900.06;5040933;28;20033;-60
2022/06/13 08:06:20;;;;;;;5.97;5.78;;;;;;;-143.83;100.00;62900.06;5051506;28;20066;-60
2022/06/13 08:08:46;;;;;;;6.10;5.90;;;;;;;-143.83;100.00;62900.06;5050435;28;20060;-59
2022/06/13 08:11:16;;;;;;;6.20;6.00;;;;;;;-143.83;100.00;62900.06;5050266;28;20052;-60
2022/06/13 08:13:41;;;;;;;6.05;5.85;;;;;;;-143.83;100.00;62900.06;5051009;28;20021;-60
2022/06/13 08:16:09;;;;;;;6.00;5.80;;;;;;;-143.83;100.00;62900.06;5051417;28;20392;-60
2022/06/13 08:18:36;;;;;;;5.82;5.63;;;;;;;-143.83;100.00;62900.06;5051347;28;20143;-60
2022/06/13 08:21:02;;;;;;;6.00;5.80;;;;;;;-143.83;100.00;62900.06;5049486;28;20052;-60
2022/06/13 08:23:28;;;;;;;6.00;5.80;;;;;;;-143.83;100.00;62900.06;5051581;28;20052;-60
2022/06/13 08:25:54;;;;;;;5.85;5.65;;;;;;;-143.83;100.00;62900.06;5050031;28;20033;-60
2022/06/13 08:28:20;;;;;;;5.75;5.55;;;;;;;-143.83;100.00;62900.06;5047367;28;20024;-60
2022/06/13 08:30:56;;;;;;;5.93;5.72;;;;;;;-143.83;100.00;62900.06;5040574;28;20518;-60
2022/06/13 08:33:23;;;;;;;5.70;5.50;;;;;;;-143.83;100.00;62900.06;5051117;28;20528;-60
2022/06/13 08:35:49;;;;;;;5.80;5.60;;;;;;;-143.83;100.00;62900.06;5042583;28;20389;-60
2022/06/13 08:38:15;;;;;;;5.82;5.63;;;;;;;-143.83;100.00;62900.06;5050590;28;20078;-60
2022/06/13 08:41:04;;;;;;;5.70;5.50;;;;;;;-143.83;100.00;62900.06;5043982;28;20105;-60
2022/06/13 08:44:07;;;;;;;5.65;5.45;;;;;;;-143.83;100.00;62900.06;5048979;28;20033;-59
2022/06/13 08:46:51;;;;;;;5.68;5.47;;;;;;;-143.83;100.00;62900.06;5055004;28;20056;-60
2022/06/13 08:49:58;;;;;;;5.67;5.47;;;;;;;-143.83;100.00;62900.06;5054960;28;20045;-60
2022/06/13 08:52:27;;;;;;;5.80;5.60;;;;;;;-143.83;100.00;62900.06;5050901;28;20538;-60
2022/06/13 08:55:10;;;;;;;5.80;5.60;;;;;;;-143.83;100.00;62900.06;5054959;28;20071;-59
2022/06/13 08:57:39;;;;;;;5.70;5.50;;;;;;;-143.83;100.00;62900.06;5053693;28;20029;-61
2022/06/13 09:00:10;;;;;;;5.68;5.47;;;;;;;-143.83;100.00;62900.06;5052043;28;20056;-59
2022/06/13 09:02:47;;;;;;;5.75;5.55;;;;;;;-143.83;100.00;62900.06;5054680;28;20023;-60
2022/06/13 09:05:33;;;;;;;5.70;5.50;;;;;;;-143.83;100.00;62900.06;5044099;28;20112;-59
2022/06/13 09:08:32;;;;;;;5.53;5.32;;;;;;;-143.83;100.00;62900.06;5054745;28;20033;-59
2022/06/13 09:11:04;;;;;;;5.70;5.50;;;;;;;-143.83;100.00;62900.06;5053930;28;20041;-60
2022/06/13 09:14:14;;;;;;;5.70;5.50;;;;;;;-143.83;100.00;62900.06;5054541;28;20384;-60
2022/06/13 09:16:43;;;;;;;5.60;5.40;;;;;;;-143.83;100.00;62900.06;5031152;28;20516;-61
2022/06/13 09:19:28;;;;;;;5.63;5.43;;;;;;;-143.83;100.00;62900.06;5054075;28;20036;-60
2022/06/13 09:22:12;;;;;;;5.68;5.47;;;;;;;-143.83;100.00;62900.06;5059572;28;20033;-60
2022/06/13 09:24:52;;;;;;;5.45;5.25;;;;;;;-143.83;100.00;62900.06;5051606;28;20049;-60
2022/06/13 09:27:39;;;;;;;5.53;5.32;;;;;;;-143.83;100.00;62900.06;5054379;28;20027;-60
2022/06/13 09:30:13;;;;;;;5.65;5.45;;;;;;;-143.83;100.00;62900.06;5062668;28;20079;-61
2022/06/13 09:32:42;;;;;;;5.60;5.40;;;;;;;-143.83;100.00;62900.06;5052409;28;20021;-60
2022/06/13 09:35:18;;;;;;;5.60;5.40;;;;;;;-143.83;100.00;62900.06;5054630;28;20024;-60
2022/06/13 09:37:53;;;;;;;5.50;5.30;;;;;;;-143.83;100.00;62900.06;5048405;28;20053;-59
2022/06/13 09:40:41;;;;;;;5.60;5.40;;;;;;;-143.83;100.00;62900.06;5054168;28;20115;-60
2022/06/13 09:43:40;;;;;;;5.70;5.50;;;;;;;-143.83;100.00;62900.06;5043289;28;20064;-59
2022/06/13 09:46:11;;;;;;;5.68;5.47;;;;;;;-143.83;100.00;62900.06;5054212;28;20033;-60
2022/06/13 09:49:02;;;;;;;5.50;5.30;;;;;;;-143.83;100.00;62900.06;5053869;28;20056;-60
2022/06/13 09:52:07;;;;;;;5.43;5.22;;;;;;;-143.83;100.00;62900.06;5040722;28;20025;-62
2022/06/13 09:54:44;;;;;;;5.50;5.30;;;;;;;-143.83;100.00;62900.06;5053457;28;20064;-60
2022/06/13 09:57:33;;;;;;;5.53;5.32;;;;;;;-143.83;100.00;62900.06;5053425;28;20032;-60
2022/06/13 10:00:31;;;;;;;5.35;5.15;;;;;;;-143.83;100.00;62900.06;5041879;28;20035;-61
2022/06/13 10:02:59;;;;;;;5.47;5.28;;;;;;;-143.83;100.00;62900.06;5032369;28;20065;-61
2022/06/13 10:05:25;;;;;;;5.57;5.38;;;;;;;-143.83;100.00;62900.06;5044279;28;20040;-61
2022/06/13 10:07:55;;;;;;;5.47;5.28;;;;;;;-143.83;100.00;62900.06;5052757;28;20460;-60
2022/06/13 10:10:29;;;;;;;5.57;5.38;;;;;;;-143.83;100.00;62900.06;5053463;28;20017;-60
2022/06/13 10:13:00;;;;;;;;;;;;;;;-143.83;100.00;62900.06;5054121;28;20037;-60
2022/06/13 10:15:26;;;;;;;5.35;5.15;;;;;;;-143.83;100.00;62900.06;5053895;28;19912;-60
2022/06/13 10:18:22;;;;;;;5.47;5.28;;;;;;;-143.83;100.00;62900.06;5053634;28;20036;-61
2022/06/13 10:20:50;;;;;;;5.55;5.35;;;;;;;-143.83;100.00;62900.06;5041549;28;20059;-60
2022/06/13 10:23:25;;;;;;;5.78;5.57;;;;;;;-143.83;100.00;62900.06;5052152;28;20023;-60
2022/06/13 10:26:08;;;;;;;5.60;5.40;;;;;;;-143.83;100.00;62900.06;5052918;28;20083;-59
2022/06/13 10:29:15;;;;;;;5.60;5.40;;;;;;;-143.83;100.00;62900.06;5038520;28;20041;-61
2022/06/13 10:31:58;;;;;;;5.50;5.30;;;;;;;-143.83;100.00;62900.06;5046715;28;20384;-60
2022/06/13 10:34:34;;;;;;;5.60;5.40;;;;;;;-143.83;100.00;62900.06;5044109;28;20033;-60
2022/06/13 10:37:24;;;;;;;5.60;5.40;;;;;;;-143.83;100.00;62900.06;5053146;28;20082;-60
2022/06/13 10:39:53;;;;;;;5.38;5.18;;;;;;;-143.83;100.00;62900.06;5053063;28;20040;-60
2022/06/13 10:42:24;;;;;;;5.50;5.30;;;;;;;-143.83;100.00;62900.06;5052062;28;20057;-62
2022/06/13 10:44:50;;;;;;;5.50;5.30;;;;;;;-143.83;100.00;62900.06;5050524;28;20037;-59
2022/06/13 10:47:33;;;;;;;5.60;5.40;;;;;;;-143.83;100.00;62900.06;5052888;28;20115;-59
2022/06/13 10:50:35;;;;;;;5.60;5.40;;;;;;;-143.83;100.00;62900.06;5052689;28;20078;-60
2022/06/13 10:53:05;;;;;;;5.45;5.25;;;;;;;-143.83;100.00;62900.06;5045585;28;20037;-60
2022/06/13 10:55:36;;;;;;;5.50;5.30;;;;;;;-143.83;100.00;62900.06;5053053;28;20025;-60
2022/06/13 10:58:28;;;;;;;5.50;5.30;;;;;;;-143.83;100.00;62900.06;5049707;28;20679;-59
2022/06/13 11:01:08;;;;;;;5.50;5.30;;;;;;;-143.83;100.00;62900.06;5048030;28;20033;-60
2022/06/13 11:03:34;;;;;;;5.40;5.20;;;;;;;-143.83;100.00;62900.06;5044135;28;20072;-59
2022/06/13 11:06:04;;;;;;;5.57;5.38;;;;;;;-143.83;100.00;62900.06;5047719;28;20029;-60
2022/06/13 11:08:31;;;;;;;5.43;5.22;;;;;;;-143.83;100.00;62900.06;5052716;28;20025;-61
2022/06/13 11:11:01;;;;;;;5.60;5.40;;;;;;;-143.83;100.00;62900.06;5052253;28;20072;-61
2022/06/13 11:13:30;;;;;;;5.60;5.40;;;;;;;-143.83;100.00;62900.06;5050086;28;20067;-60
2022/06/13 11:25:02;;;;;;;5.57;5.38;;;;;;;-143.83;100.00;62900.06;5007935;28;20451;-60
2022/06/13 11:27:41;;;;;;;5.50;5.30;;;;;;;-143.83;100.00;62900.06;5028604;28;20033;-60
2022/06/13 11:30:25;;;;;;;5.45;5.25;;;;;;;-143.83;100.00;62900.06;5043429;28;20028;-59
2022/06/13 11:33:09;;;;;;;5.60;5.40;;;;;;;-143.83;100.00;62900.06;5051163;28;20025;-59
2022/06/13 11:35:42;;;;;;;5.50;5.30;;;;;;;-143.83;100.00;62900.06;5052059;28;20511;-60
2022/06/13 11:38:21;;;;;;;5.37;5.17;;;;;;;-143.83;100.00;62900.06;5049498;28;20024;-60
2022/06/13 11:41:05;;;;;;;5.28;5.07;;;;;;;-143.83;100.00;62900.06;5051536;28;20644;-61
2022/06/13 11:43:34;;;;;;;;;;;;;;;-143.83;100.00;62900.06;5044230;28;20087;-61
2022/06/13 11:46:05;;;;;;;5.50;5.30;;;;;;;-143.83;100.00;62900.06;5053775;28;19967;-60
2022/06/13 11:48:30;;;;;;;5.60;5.40;;;;;;;-143.83;100.00;62900.06;5053163;28;20040;-60
2022/06/13 11:51:00;;;;;;;5.55;5.35;;;;;;;-143.83;100.00;62900.06;5052961;28;20074;-61
2022/06/13 11:53:36;;;;;;;5.60;5.40;;;;;;;-143.83;100.00;62900.06;5049041;28;20025;-60
2022/06/13 11:56:06;;;;;;;5.43;5.22;;;;;;;-143.83;100.00;62900.06;5054487;28;20455;-60
2022/06/13 11:58:34;;;;;;;5.45;5.25;;;;;;;-143.83;100.00;62900.06;5051422;28;20033;-59
2022/06/13 12:01:17;;;;;;;5.32;5.13;;;;;;;-143.83;100.00;62900.06;5053238;28;20115;-61